Time;durP1;ratioP1;P1;durP2;ratioP2;P2;SDS_P1;SDS_P2;PMS_P1;PMS_P2;Temp;Humidity;BMP_temperature;BMP_pressure;BME280_temperature;BME280_humidity;BME280_pressure;Samples;Min_cycle;Max_cycle;Signal;HPM_P1;HPM_P2
2023/01/14 00:01:09;;;;;;;6.77;1.70;;;;;;;-145.69;100.00;52662.22;5073687;28;20266;-80
2023/01/14 00:03:36;;;;;;;5.63;1.40;;;;;;;-145.69;100.00;52622.63;5074110;28;20207;-82
2023/01/14 00:06:03;;;;;;;7.50;1.73;;;;;;;-145.69;100.00;52594.91;5074293;28;20203;-81
2023/01/14 00:08:30;;;;;;;5.10;1.50;;;;;;;-145.69;100.00;52626.59;5074147;28;20530;-80
2023/01/14 00:11:01;;;;;;;8.90;1.73;;;;;;;-145.69;100.00;52588.97;5073786;28;20194;-80
2023/01/14 00:13:27;;;;;;;6.20;1.33;;;;;;;-145.69;100.00;52622.63;5073017;28;20230;-80
2023/01/14 00:15:55;;;;;;;5.87;1.37;;;;;;;-145.69;100.00;52618.66;5073709;28;20237;-79
2023/01/14 00:18:24;;;;;;;7.20;1.57;;;;;;;-145.69;100.00;52618.66;5073425;28;20199;-79
2023/01/14 00:21:00;;;;;;;5.60;1.23;;;;;;;-145.69;100.00;52608.75;5073370;28;20588;-81
2023/01/14 00:23:28;;;;;;;6.53;1.60;;;;;;;-145.69;100.00;52620.66;5073220;28;20205;-79
2023/01/14 00:25:55;;;;;;;2.80;1.37;;;;;;;-145.69;100.00;52608.75;5073445;28;20213;-79
2023/01/14 00:28:21;;;;;;;8.97;1.30;;;;;;;-145.69;100.00;52598.84;5073735;28;20207;-81
2023/01/14 00:30:48;;;;;;;8.47;1.70;;;;;;;-145.69;100.00;52610.75;5073556;28;20203;-80
2023/01/14 00:33:14;;;;;;;6.60;1.30;;;;;;;-145.69;100.00;52598.84;5073480;28;20253;-81
2023/01/14 00:35:42;;;;;;;8.23;1.43;;;;;;;-145.69;100.00;52622.63;5072846;28;20213;-81
2023/01/14 00:38:09;;;;;;;7.40;1.40;;;;;;;-145.69;100.00;52590.94;5073287;28;20207;-81
2023/01/14 00:40:35;;;;;;;6.60;1.40;;;;;;;-145.69;100.00;52644.41;5073342;28;20210;-79
2023/01/14 00:43:02;;;;;;;4.70;1.17;;;;;;;-145.69;100.00;52628.56;5072952;28;20238;-80
2023/01/14 00:45:28;;;;;;;2.13;1.07;;;;;;;-145.69;100.00;52630.53;5072801;28;20562;-81
2023/01/14 00:47:55;;;;;;;6.23;1.07;;;;;;;-145.69;100.00;52610.75;5072853;28;20195;-81
2023/01/14 00:50:21;;;;;;;6.70;1.30;;;;;;;-145.69;100.00;52636.50;5073417;28;20211;-79
2023/01/14 00:52:49;;;;;;;6.53;1.20;;;;;;;-145.69;100.00;52563.22;5073029;28;20681;-80
2023/01/14 00:55:15;;;;;;;4.27;1.13;;;;;;;-145.69;100.00;52620.66;5072950;28;20223;-82
2023/01/14 00:57:42;;;;;;;6.57;1.10;;;;;;;-145.69;100.00;52618.66;5073451;28;20199;-80
2023/01/14 01:00:09;;;;;;;4.10;1.23;;;;;;;-145.69;100.00;52608.75;5073101;28;20206;-82
2023/01/14 01:02:36;;;;;;;4.83;1.43;;;;;;;-145.69;100.00;52630.53;5073020;28;20202;-81
2023/01/14 01:05:02;;;;;;;8.50;0.93;;;;;;;-145.69;100.00;52604.81;5072605;28;20202;-79
2023/01/14 01:07:29;;;;;;;5.43;1.07;;;;;;;-145.69;100.00;52604.81;5072897;28;20553;-81
2023/01/14 01:09:56;;;;;;;8.03;1.13;;;;;;;-145.69;100.00;52626.59;5072817;28;20562;-79
2023/01/14 01:12:23;;;;;;;7.17;0.90;;;;;;;-145.69;100.00;52600.84;5072941;28;20692;-81
2023/01/14 01:14:49;;;;;;;2.00;0.80;;;;;;;-145.69;100.00;52634.50;5071683;28;20685;-82
2023/01/14 01:17:16;;;;;;;3.77;1.40;;;;;;;-145.69;100.00;52614.72;5072122;28;20202;-81
2023/01/14 01:19:42;;;;;;;3.40;1.10;;;;;;;-145.69;100.00;52626.59;5072906;28;20257;-81
2023/01/14 01:22:09;;;;;;;5.63;1.00;;;;;;;-145.69;100.00;52622.63;5072671;28;20675;-81
2023/01/14 01:24:35;;;;;;;12.47;1.30;;;;;;;-145.69;100.00;52646.41;5072974;28;20206;-81
2023/01/14 01:27:03;;;;;;;4.47;0.77;;;;;;;-145.69;100.00;52620.66;5072796;28;20202;-82
2023/01/14 01:29:30;;;;;;;6.93;1.10;;;;;;;-145.69;100.00;52614.72;5072659;28;20209;-82
2023/01/14 01:31:56;;;;;;;2.60;1.20;;;;;;;-145.69;100.00;52624.59;5072701;28;20222;-81
2023/01/14 01:34:23;;;;;;;8.37;1.33;;;;;;;-145.69;100.00;52628.56;5072464;28;20187;-82
2023/01/14 01:36:49;;;;;;;9.90;1.57;;;;;;;-145.69;100.00;52624.59;5072901;28;20205;-82
2023/01/14 01:39:15;;;;;;;6.67;0.90;;;;;;;-145.69;100.00;52586.97;5072628;28;20206;-81
2023/01/14 01:41:42;;;;;;;11.10;1.07;;;;;;;-145.69;100.00;52622.63;5072794;28;20206;-82
2023/01/14 01:44:42;;;;;;;8.43;1.60;;;;;;;-145.69;100.00;52628.56;5072631;28;20222;-80
2023/01/14 01:47:09;;;;;;;5.77;1.43;;;;;;;-145.69;100.00;52614.72;5072478;28;20199;-82
2023/01/14 01:49:38;;;;;;;5.10;1.40;;;;;;;-145.69;100.00;52628.56;5072439;28;20206;-80
2023/01/14 01:52:09;;;;;;;7.00;1.50;;;;;;;-145.69;100.00;52614.72;5072840;28;20562;-80
2023/01/14 01:54:42;;;;;;;3.40;1.10;;;;;;;-145.69;100.00;52614.72;5072853;28;20198;-81
2023/01/14 01:57:11;;;;;;;5.73;1.40;;;;;;;-145.69;100.00;52638.47;5072866;28;20202;-83
2023/01/14 01:59:42;;;;;;;6.60;1.27;;;;;;;-145.69;100.00;52608.75;5072737;28;20203;-80
2023/01/14 02:02:11;;;;;;;6.07;1.10;;;;;;;-145.69;100.00;52622.63;5072614;28;20554;-81
2023/01/14 02:04:38;;;;;;;7.37;1.10;;;;;;;-145.69;100.00;52622.63;5072511;28;20206;-79
2023/01/14 02:07:15;;;;;;;4.80;1.53;;;;;;;-145.69;100.00;52626.59;5072230;28;20670;-80
2023/01/14 02:09:41;;;;;;;2.80;1.07;;;;;;;-145.69;100.00;52634.50;5072413;28;20293;-80
2023/01/14 02:12:27;;;;;;;4.00;1.20;;;;;;;-145.69;100.00;52590.94;5072783;28;20569;-82
2023/01/14 02:15:14;;;;;;;9.57;1.30;;;;;;;-145.69;100.00;52654.31;5072546;28;20208;-80
2023/01/14 02:17:57;;;;;;;5.73;1.40;;;;;;;-145.69;100.00;52660.25;5069503;28;20553;-80
2023/01/14 02:20:30;;;;;;;6.70;1.10;;;;;;;-145.69;100.00;52614.72;5072212;28;20260;-82
2023/01/14 02:23:24;;;;;;;3.33;1.00;;;;;;;-145.69;100.00;52610.75;5072260;28;20192;-81
2023/01/14 02:26:15;;;;;;;6.03;1.20;;;;;;;-145.69;100.00;52634.50;5046932;28;20207;-82
2023/01/14 02:29:10;;;;;;;2.90;0.90;;;;;;;-145.69;100.00;52620.66;5042642;28;20206;-81
2023/01/14 02:31:45;;;;;;;4.40;1.33;;;;;;;-145.69;100.00;52642.44;5076523;28;20573;-80
2023/01/14 02:34:18;;;;;;;10.17;1.60;;;;;;;-145.69;100.00;52610.75;5076068;28;20217;-83
2023/01/14 02:36:52;;;;;;;7.90;1.80;;;;;;;-145.69;100.00;52618.66;5076115;28;20202;-83
2023/01/14 02:39:27;;;;;;;7.47;1.10;;;;;;;-145.69;100.00;52636.50;5076150;28;20198;-83
2023/01/14 02:44:52;;;;;;;11.60;1.50;;;;;;;-145.69;100.00;52614.72;5075466;28;20317;-83
2023/01/14 02:47:24;;;;;;;10.63;1.43;;;;;;;-145.69;100.00;52626.59;5076115;28;20194;-82
2023/01/14 02:49:54;;;;;;;4.37;1.30;;;;;;;-145.69;100.00;52642.44;5076184;28;20199;-83
2023/01/14 02:52:21;;;;;;;7.97;1.27;;;;;;;-145.69;100.00;52598.84;5075851;28;20229;-83
2023/01/14 02:54:54;;;;;;;2.13;1.07;;;;;;;-145.69;100.00;52602.81;5075698;28;20604;-84
2023/01/14 02:57:37;;;;;;;7.93;1.00;;;;;;;-145.69;100.00;52614.72;5076007;28;20695;-83
2023/01/14 03:00:13;;;;;;;7.17;1.10;;;;;;;-145.69;100.00;52632.53;5075947;28;20198;-80
2023/01/14 03:02:52;;;;;;;5.80;1.30;;;;;;;-145.69;100.00;52646.41;5075806;28;20206;-81
2023/01/14 03:05:39;;;;;;;6.93;1.07;;;;;;;-145.69;100.00;52630.53;5075438;28;20198;-83
2023/01/14 03:08:17;;;;;;;2.47;0.83;;;;;;;-145.69;100.00;52662.22;5075560;28;20203;-81
2023/01/14 03:10:48;;;;;;;5.93;1.00;;;;;;;-145.69;100.00;52638.47;5075810;28;20205;-80
2023/01/14 03:13:20;;;;;;;7.37;1.70;;;;;;;-145.69;100.00;52638.47;5075546;28;20227;-82
2023/01/14 03:15:52;;;;;;;6.33;1.63;;;;;;;-145.69;100.00;52618.66;5075596;28;20199;-83
2023/01/14 03:18:26;;;;;;;8.53;1.40;;;;;;;-145.69;100.00;52630.53;5075490;28;20616;-81
2023/01/14 03:20:58;;;;;;;6.37;1.40;;;;;;;-145.69;100.00;52650.34;5075601;28;20198;-82
2023/01/14 03:23:28;;;;;;;9.03;1.20;;;;;;;-145.69;100.00;52634.50;5075692;28;20205;-81
2023/01/14 03:25:55;;;;;;;8.03;1.47;;;;;;;-145.69;100.00;52642.44;5060080;28;20658;-81
2023/01/14 03:28:24;;;;;;;5.33;1.70;;;;;;;-145.69;100.00;52652.34;5055576;28;20214;-81
2023/01/14 03:30:56;;;;;;;10.03;1.97;;;;;;;-145.69;100.00;52644.41;5055514;28;20211;-81
2023/01/14 03:33:27;;;;;;;9.77;2.13;;;;;;;-145.69;100.00;52668.19;5055326;28;20231;-81
2023/01/14 03:35:57;;;;;;;13.23;1.57;;;;;;;-145.69;100.00;52646.41;5062627;28;20206;-82
2023/01/14 03:38:28;;;;;;;5.20;1.40;;;;;;;-145.69;100.00;52654.31;5074433;28;20205;-81
2023/01/14 03:40:57;;;;;;;6.27;1.50;;;;;;;-145.69;100.00;52670.16;5075211;28;20198;-84
2023/01/14 03:43:30;;;;;;;14.53;1.40;;;;;;;-145.69;100.00;52638.47;5074927;28;20586;-82
2023/01/14 03:45:57;;;;;;;9.97;1.80;;;;;;;-145.69;100.00;52666.19;5055181;28;20206;-84
2023/01/14 03:48:26;;;;;;;7.17;1.17;;;;;;;-145.69;100.00;52624.59;5054869;28;20203;-82
2023/01/14 03:50:59;;;;;;;11.70;1.63;;;;;;;-145.69;100.00;52632.53;5054952;28;20199;-81
2023/01/14 03:53:32;;;;;;;3.33;1.20;;;;;;;-145.69;100.00;52646.41;5054829;28;20273;-83
2023/01/14 03:56:09;;;;;;;12.13;1.57;;;;;;;-145.69;100.00;52658.28;5054800;28;20199;-82
2023/01/14 03:58:42;;;;;;;7.30;1.40;;;;;;;-145.69;100.00;52676.09;5053647;28;20230;-82
2023/01/14 04:01:14;;;;;;;11.03;1.53;;;;;;;-145.69;100.00;52638.47;5053615;28;20195;-84
2023/01/14 04:03:43;;;;;;;12.53;1.30;;;;;;;-145.69;100.00;52656.28;5054776;28;20214;-82
2023/01/14 04:06:11;;;;;;;9.80;1.33;;;;;;;-145.69;100.00;52650.34;5063014;28;20672;-82
2023/01/14 04:08:38;;;;;;;10.37;1.20;;;;;;;-145.69;100.00;52620.66;5074476;28;20202;-82
2023/01/14 04:11:05;;;;;;;7.80;1.10;;;;;;;-145.69;100.00;52642.44;5074445;28;20198;-83
2023/01/14 04:16:15;;;;;;;14.67;1.67;;;;;;;-145.69;100.00;52666.19;5054509;28;20296;-83
2023/01/14 04:18:43;;;;;;;6.50;1.53;;;;;;;-145.69;100.00;52650.34;5054418;28;20195;-82
2023/01/14 04:21:10;;;;;;;14.33;1.50;;;;;;;-145.69;100.00;52634.50;5058628;28;20202;-83
2023/01/14 04:23:36;;;;;;;17.03;1.70;;;;;;;-145.69;100.00;52618.66;5074339;28;20202;-83
2023/01/14 04:26:03;;;;;;;11.50;1.67;;;;;;;-145.69;100.00;52654.31;5074345;28;20207;-82
2023/01/14 04:28:29;;;;;;;7.50;1.33;;;;;;;-145.69;100.00;52670.16;5074066;28;20669;-83
2023/01/14 04:30:56;;;;;;;17.50;2.60;;;;;;;-145.69;100.00;52664.22;5074248;28;20199;-83
2023/01/14 04:33:23;;;;;;;7.33;2.07;;;;;;;-145.69;100.00;52642.44;5073868;28;20597;-83
2023/01/14 04:35:51;;;;;;;9.97;1.60;;;;;;;-145.69;100.00;52624.59;5073502;28;20206;-80
2023/01/14 04:38:20;;;;;;;17.03;1.97;;;;;;;-145.69;100.00;52662.22;5074118;28;20199;-81
2023/01/14 04:40:49;;;;;;;16.37;2.20;;;;;;;-145.69;100.00;52638.47;5074095;28;20229;-80
2023/01/14 04:43:14;;;;;;;11.60;1.73;;;;;;;-145.69;100.00;52636.50;5073609;28;20234;-81
2023/01/14 04:45:41;;;;;;;12.00;1.60;;;;;;;-145.69;100.00;52630.53;5073477;28;20688;-81
2023/01/14 04:48:07;;;;;;;15.70;1.50;;;;;;;-145.69;100.00;52646.41;5073810;28;20203;-82
2023/01/14 04:50:34;;;;;;;16.30;1.80;;;;;;;-145.69;100.00;52632.53;5073685;28;20202;-82
2023/01/14 04:53:06;;;;;;;15.67;1.70;;;;;;;-145.69;100.00;52652.34;5073781;28;20304;-83
2023/01/14 04:55:36;;;;;;;11.73;1.73;;;;;;;-145.69;100.00;52624.59;5074026;28;20206;-83
2023/01/14 04:58:03;;;;;;;7.73;1.40;;;;;;;-145.69;100.00;52622.63;5073316;28;20195;-82
2023/01/14 05:00:30;;;;;;;10.27;1.80;;;;;;;-145.69;100.00;52638.47;5073048;28;20673;-81
2023/01/14 05:02:56;;;;;;;9.60;1.80;;;;;;;-145.69;100.00;52638.47;5073938;28;20519;-82
2023/01/14 05:05:22;;;;;;;6.47;1.57;;;;;;;-145.69;100.00;52630.53;5073053;28;20194;-82
2023/01/14 05:07:49;;;;;;;7.47;2.10;;;;;;;-145.69;100.00;52626.59;5073158;28;20201;-81
2023/01/14 05:10:17;;;;;;;9.90;1.50;;;;;;;-145.69;100.00;52652.34;5073135;28;20202;-82
2023/01/14 05:12:55;;;;;;;10.13;1.37;;;;;;;-145.69;100.00;52662.22;5072947;28;20210;-82
2023/01/14 05:15:22;;;;;;;7.03;1.80;;;;;;;-145.69;100.00;52614.72;5073320;28;20202;-82
2023/01/14 05:17:49;;;;;;;16.90;1.83;;;;;;;-145.69;100.00;52630.53;5070033;28;20676;-80
2023/01/14 05:20:15;;;;;;;14.67;2.27;;;;;;;-145.69;100.00;52658.28;5073327;28;20211;-82
2023/01/14 05:22:42;;;;;;;12.47;2.10;;;;;;;-145.69;100.00;52614.72;5072593;28;20645;-79
2023/01/14 05:25:09;;;;;;;16.33;2.33;;;;;;;-145.69;100.00;52660.25;5072921;28;20527;-82
2023/01/14 05:27:37;;;;;;;10.17;1.80;;;;;;;-145.69;100.00;52618.66;5072702;28;20215;-81
2023/01/14 05:30:05;;;;;;;12.90;2.00;;;;;;;-145.69;100.00;52577.06;5072883;28;20202;-82
2023/01/14 05:32:31;;;;;;;9.40;1.33;;;;;;;-145.69;100.00;52642.44;5072943;28;20210;-82
2023/01/14 05:34:58;;;;;;;15.97;1.97;;;;;;;-145.69;100.00;52614.72;5072267;28;20218;-82
2023/01/14 05:37:24;;;;;;;15.48;2.20;;;;;;;-145.69;100.00;52632.53;5072062;28;20470;-81
2023/01/14 05:39:51;;;;;;;10.97;1.30;;;;;;;-145.69;100.00;52618.66;5072772;28;20601;-81
2023/01/14 05:47:46;;;;;;;7.10;1.30;;;;;;;-145.69;100.00;52634.50;5072839;28;20289;-84
2023/01/14 05:50:14;;;;;;;17.33;2.17;;;;;;;-145.69;100.00;52598.84;5072479;28;20222;-79
2023/01/14 05:52:40;;;;;;;12.30;1.97;;;;;;;-145.69;100.00;52583.00;5072161;28;20206;-81
2023/01/14 05:55:07;;;;;;;10.13;1.70;;;;;;;-145.69;100.00;52632.53;5071655;28;20226;-79
2023/01/14 05:57:35;;;;;;;19.67;2.23;;;;;;;-145.69;100.00;52626.59;5052679;28;20196;-79
2023/01/14 06:00:03;;;;;;;14.13;2.03;;;;;;;-145.69;100.00;52598.84;5070602;28;20195;-79
2023/01/14 06:08:02;;;;;;;12.60;1.77;;;;;;;-145.69;100.00;52608.75;5076070;28;20648;-79
2023/01/14 06:10:28;;;;;;;13.67;2.60;;;;;;;-145.69;100.00;52634.50;5075962;28;20207;-80
2023/01/14 06:12:58;;;;;;;10.97;1.90;;;;;;;-145.69;100.00;52620.66;5076043;28;20194;-79
2023/01/14 06:15:29;;;;;;;12.00;1.90;;;;;;;-145.69;100.00;52638.47;5076111;28;20206;-79
2023/01/14 06:17:58;;;;;;;13.53;1.93;;;;;;;-145.69;100.00;52575.09;5075966;28;20203;-79
2023/01/14 06:20:25;;;;;;;13.37;1.47;;;;;;;-145.69;100.00;52636.50;5075864;28;20203;-81
2023/01/14 06:22:54;;;;;;;8.93;1.70;;;;;;;-145.69;100.00;52602.81;5075936;28;20238;-80
2023/01/14 06:25:20;;;;;;;10.37;1.90;;;;;;;-145.69;100.00;52658.28;5075062;28;20673;-79
2023/01/14 06:27:47;;;;;;;13.90;2.20;;;;;;;-145.69;100.00;52606.78;5075829;28;20202;-79
2023/01/14 06:30:14;;;;;;;9.40;2.23;;;;;;;-145.69;100.00;52594.91;5075090;28;20197;-81
2023/01/14 06:32:42;;;;;;;21.63;2.80;;;;;;;-145.69;100.00;52620.66;5075832;28;20206;-81
2023/01/14 06:35:09;;;;;;;12.00;1.87;;;;;;;-145.69;100.00;52614.72;5075295;28;20222;-79
2023/01/14 06:37:35;;;;;;;12.07;2.10;;;;;;;-145.69;100.00;52620.66;5075633;28;20202;-81
2023/01/14 06:40:02;;;;;;;7.53;1.50;;;;;;;-145.69;100.00;52660.25;5075299;28;20205;-79
2023/01/14 06:42:28;;;;;;;8.57;1.60;;;;;;;-145.69;100.00;52630.53;5074425;28;20203;-78
2023/01/14 06:44:55;;;;;;;10.97;1.80;;;;;;;-145.69;100.00;52622.63;5075171;28;20238;-81
2023/01/14 06:47:21;;;;;;;13.10;1.80;;;;;;;-145.69;100.00;52634.50;5075074;28;20206;-80
2023/01/14 06:49:49;;;;;;;13.63;1.90;;;;;;;-145.69;100.00;52602.81;5075486;28;20205;-81
2023/01/14 06:52:15;;;;;;;9.20;2.40;;;;;;;-145.69;100.00;52622.63;5075533;28;20237;-81
2023/01/14 06:54:42;;;;;;;8.33;1.50;;;;;;;-145.69;100.00;52602.81;5074926;28;20728;-81
2023/01/14 06:57:08;;;;;;;11.83;1.97;;;;;;;-145.69;100.00;52628.56;5074481;28;20201;-81
2023/01/14 06:59:35;;;;;;;3.13;1.20;;;;;;;-145.69;100.00;52610.75;5075585;28;20206;-81
2023/01/14 07:02:01;;;;;;;15.97;1.80;;;;;;;-145.69;100.00;52616.69;5075186;28;20206;-81
2023/01/14 07:04:28;;;;;;;15.80;2.47;;;;;;;-145.69;100.00;52622.63;5074872;28;20202;-81
2023/01/14 07:06:56;;;;;;;10.63;1.90;;;;;;;-145.69;100.00;52614.72;5074554;28;20202;-80
2023/01/14 07:09:22;;;;;;;6.50;1.77;;;;;;;-145.69;100.00;52583.00;5074972;28;20198;-82
2023/01/14 07:11:49;;;;;;;12.63;2.40;;;;;;;-145.69;100.00;52622.63;5073763;28;20560;-82
2023/01/14 07:14:15;;;;;;;13.37;1.80;;;;;;;-145.69;100.00;52614.72;5075391;28;20222;-81
2023/01/14 07:16:42;;;;;;;6.10;1.50;;;;;;;-145.69;100.00;52608.75;5075008;28;20202;-82
2023/01/14 07:19:09;;;;;;;16.10;1.80;;;;;;;-145.69;100.00;52624.59;5074835;28;20195;-81
2023/01/14 07:21:36;;;;;;;6.93;1.10;;;;;;;-145.69;100.00;52614.72;5074446;28;20241;-81
2023/01/14 07:24:04;;;;;;;9.30;1.17;;;;;;;-145.69;100.00;52622.63;5074335;28;20211;-80
2023/01/14 07:26:31;;;;;;;6.80;1.20;;;;;;;-145.69;100.00;52636.50;5069950;28;20203;-80
2023/01/14 07:28:57;;;;;;;6.23;1.30;;;;;;;-145.69;100.00;52600.84;5054782;28;20654;-81
2023/01/14 07:31:24;;;;;;;7.80;1.30;;;;;;;-145.69;100.00;52598.84;5060215;28;20191;-82
2023/01/14 07:33:50;;;;;;;3.87;1.00;;;;;;;-145.69;100.00;52614.72;5074828;28;20222;-82
2023/01/14 07:36:17;;;;;;;3.47;1.00;;;;;;;-145.69;100.00;52608.75;5074902;28;20203;-81
2023/01/14 07:38:43;;;;;;;3.33;1.23;;;;;;;-145.69;100.00;52579.06;5074339;28;20557;-80
2023/01/14 07:41:11;;;;;;;5.07;1.07;;;;;;;-145.69;100.00;52586.97;5074487;28;20203;-80
2023/01/14 07:43:38;;;;;;;4.17;1.27;;;;;;;-145.69;100.00;52610.75;5074343;28;20226;-81
2023/01/14 07:46:06;;;;;;;13.50;1.00;;;;;;;-145.69;100.00;52583.00;5074638;28;20203;-81
2023/01/14 07:48:33;;;;;;;5.13;1.10;;;;;;;-145.69;100.00;52618.66;5074304;28;20202;-80
2023/01/14 07:51:03;;;;;;;2.33;1.10;;;;;;;-145.69;100.00;52598.84;5073841;28;20289;-80
2023/01/14 07:53:29;;;;;;;3.67;1.10;;;;;;;-145.69;100.00;52622.63;5074128;28;20650;-80
2023/01/14 07:55:56;;;;;;;5.93;1.07;;;;;;;-145.69;100.00;52592.91;5073976;28;20545;-81
2023/01/14 07:58:24;;;;;;;5.10;1.30;;;;;;;-145.69;100.00;52618.66;5073637;28;20207;-81
2023/01/14 08:00:50;;;;;;;5.73;1.30;;;;;;;-145.69;100.00;52602.81;5073988;28;20203;-80
2023/01/14 08:03:17;;;;;;;4.97;1.00;;;;;;;-145.69;100.00;52610.75;5073973;28;20604;-81
2023/01/14 08:05:43;;;;;;;4.80;1.20;;;;;;;-145.69;100.00;52598.84;5073634;28;20657;-81
2023/01/14 08:08:10;;;;;;;3.73;0.90;;;;;;;-145.69;100.00;52618.66;5073561;28;20206;-80
2023/01/14 08:10:36;;;;;;;3.90;0.90;;;;;;;-145.69;100.00;52592.91;5074133;28;20212;-81
2023/01/14 08:13:03;;;;;;;5.30;1.20;;;;;;;-145.69;100.00;52612.72;5074051;28;20203;-80
2023/01/14 08:15:31;;;;;;;5.10;0.97;;;;;;;-145.69;100.00;52644.41;5073629;28;20222;-81
2023/01/14 08:17:59;;;;;;;3.40;1.20;;;;;;;-145.69;100.00;52571.13;5073402;28;20191;-81
2023/01/14 08:20:27;;;;;;;5.50;0.97;;;;;;;-145.69;100.00;52571.13;5073757;28;20198;-81
2023/01/14 08:22:57;;;;;;;4.77;1.13;;;;;;;-145.69;100.00;52575.09;5073391;28;20199;-80
2023/01/14 08:25:25;;;;;;;5.90;1.40;;;;;;;-145.69;100.00;52606.78;5073865;28;20285;-81
2023/01/14 08:27:52;;;;;;;8.73;1.33;;;;;;;-145.69;100.00;52590.94;5072939;28;20199;-80
2023/01/14 08:30:18;;;;;;;7.30;1.23;;;;;;;-145.69;100.00;52586.97;5073104;28;20445;-80
2023/01/14 08:32:48;;;;;;;4.13;1.03;;;;;;;-145.69;100.00;52559.25;5073494;28;20605;-80
2023/01/14 08:35:15;;;;;;;9.43;1.43;;;;;;;-145.69;100.00;52569.16;5073124;28;20284;-81
2023/01/14 08:37:41;;;;;;;2.87;1.07;;;;;;;-145.69;100.00;52583.00;5073228;28;20213;-81
2023/01/14 08:40:09;;;;;;;5.33;1.20;;;;;;;-145.69;100.00;52569.16;5073079;28;20195;-81
2023/01/14 08:42:36;;;;;;;3.63;1.30;;;;;;;-145.69;100.00;52571.13;5072665;28;20198;-80
2023/01/14 08:45:02;;;;;;;7.70;1.10;;;;;;;-145.69;100.00;52579.06;5073053;28;20199;-81
2023/01/14 08:47:29;;;;;;;5.53;0.93;;;;;;;-145.69;100.00;52581.03;5073280;28;20202;-81
2023/01/14 08:49:57;;;;;;;6.87;1.20;;;;;;;-145.69;100.00;52586.97;5073143;28;20199;-81
2023/01/14 08:52:24;;;;;;;3.63;1.40;;;;;;;-145.69;100.00;52590.94;5074160;28;20202;-81
2023/01/14 08:54:50;;;;;;;4.37;1.00;;;;;;;-145.69;100.00;52577.06;5073068;28;20719;-80
2023/01/14 08:57:17;;;;;;;6.90;1.33;;;;;;;-145.69;100.00;52571.13;5072680;28;20248;-81
2023/01/14 08:59:43;;;;;;;3.47;0.80;;;;;;;-145.69;100.00;52557.28;5073054;28;20215;-81
2023/01/14 09:02:14;;;;;;;1.73;0.83;;;;;;;-145.69;100.00;52602.81;5072827;28;20202;-81
2023/01/14 09:04:41;;;;;;;6.93;1.27;;;;;;;-145.69;100.00;52575.09;5072838;28;20187;-81
2023/01/14 09:18:05;;;;;;;4.10;0.80;;;;;;;-145.69;100.00;52563.22;5073261;28;20201;-79
2023/01/14 09:20:34;;;;;;;5.23;1.30;;;;;;;-145.69;100.00;52585.00;5072691;28;20202;-80
2023/01/14 09:23:03;;;;;;;5.50;1.20;;;;;;;-145.69;100.00;52555.28;5072783;28;20208;-79
2023/01/14 09:25:30;;;;;;;2.83;1.17;;;;;;;-145.69;100.00;52561.22;5072458;28;20233;-80
2023/01/14 09:27:56;;;;;;;3.20;0.90;;;;;;;-145.69;100.00;52575.09;5070369;28;20198;-79
2023/01/14 09:30:23;;;;;;;2.50;0.83;;;;;;;-145.69;100.00;52575.09;5072833;28;20205;-80
2023/01/14 09:32:50;;;;;;;1.80;0.90;;;;;;;-145.69;100.00;52598.84;5072764;28;20205;-80
2023/01/14 09:35:16;;;;;;;5.33;0.70;;;;;;;-145.69;100.00;52553.31;5074209;28;20628;-82
2023/01/14 09:37:43;;;;;;;2.77;0.70;;;;;;;-145.69;100.00;52575.09;5076230;28;20198;-81
2023/01/14 09:40:12;;;;;;;1.63;0.80;;;;;;;-145.69;100.00;52596.88;5076752;28;20204;-82
2023/01/14 09:42:42;;;;;;;2.20;0.80;;;;;;;-145.69;100.00;52569.16;5076436;28;20202;-80
2023/01/14 09:45:14;;;;;;;4.57;1.00;;;;;;;-145.69;100.00;52565.19;5076786;28;20195;-80
2023/01/14 09:47:43;;;;;;;2.83;0.97;;;;;;;-145.69;100.00;52541.44;5056538;28;20196;-80
2023/01/14 09:50:14;;;;;;;4.73;0.90;;;;;;;-145.69;100.00;52563.22;5056302;28;20654;-81
2023/01/14 09:52:50;;;;;;;1.63;0.90;;;;;;;-145.69;100.00;52563.22;5056567;28;20203;-80
2023/01/14 09:55:26;;;;;;;2.40;0.90;;;;;;;-145.69;100.00;52583.00;5059141;28;20214;-80
2023/01/14 09:57:56;;;;;;;4.50;1.10;;;;;;;-145.69;100.00;52557.28;5056413;28;20200;-79
2023/01/14 10:00:31;;;;;;;4.67;1.00;;;;;;;-145.69;100.00;52571.13;5056030;28;20205;-80
2023/01/14 10:03:13;;;;;;;5.67;0.80;;;;;;;-145.69;100.00;52559.25;5064176;28;20198;-78
2023/01/14 10:05:42;;;;;;;4.47;1.10;;;;;;;-145.69;100.00;52555.28;5075702;28;20679;-80
2023/01/14 10:08:12;;;;;;;3.77;0.90;;;;;;;-145.69;100.00;52543.41;5075970;28;20206;-80
2023/01/14 10:10:42;;;;;;;3.50;0.90;;;;;;;-145.69;100.00;52583.00;5076149;28;20210;-80
2023/01/14 10:13:14;;;;;;;1.90;0.70;;;;;;;-145.69;100.00;52561.22;5076035;28;20688;-80
2023/01/14 10:15:46;;;;;;;4.73;1.10;;;;;;;-145.69;100.00;52577.06;5075757;28;20573;-80
2023/01/14 10:18:18;;;;;;;2.63;0.73;;;;;;;-145.69;100.00;52559.25;5076184;28;20206;-80
2023/01/14 10:20:51;;;;;;;1.40;0.70;;;;;;;-145.69;100.00;52563.22;5076002;28;20206;-80
2023/01/14 10:23:22;;;;;;;6.10;0.93;;;;;;;-145.69;100.00;52581.03;5075927;28;20195;-80
2023/01/14 10:25:53;;;;;;;6.23;0.90;;;;;;;-145.69;100.00;52579.06;5076204;28;20229;-80
2023/01/14 10:28:23;;;;;;;7.00;0.90;;;;;;;-145.69;100.00;52555.28;5075642;28;20199;-80
2023/01/14 10:30:51;;;;;;;3.33;0.90;;;;;;;-145.69;100.00;52525.59;5075877;28;20195;-80
2023/01/14 10:33:20;;;;;;;4.63;1.00;;;;;;;-145.69;100.00;52559.25;5075643;28;20557;-80
2023/01/14 10:35:52;;;;;;;6.83;0.90;;;;;;;-145.69;100.00;52539.44;5075404;28;20229;-80
2023/01/14 10:38:22;;;;;;;3.87;0.97;;;;;;;-145.69;100.00;52569.16;5075634;28;20190;-79
2023/01/14 10:40:52;;;;;;;4.57;1.07;;;;;;;-145.69;100.00;52577.06;5075449;28;20198;-79
2023/01/14 10:43:26;;;;;;;4.50;1.20;;;;;;;-145.69;100.00;52592.91;5075225;28;20245;-79
2023/01/14 10:45:53;;;;;;;3.17;0.90;;;;;;;-145.69;100.00;52537.47;5074697;28;20204;-77
2023/01/14 10:48:22;;;;;;;2.00;0.93;;;;;;;-145.69;100.00;52561.22;5075276;28;20194;-76
2023/01/14 10:50:49;;;;;;;6.27;1.27;;;;;;;-145.69;100.00;52527.56;5075120;28;20205;-76
2023/01/14 10:53:19;;;;;;;3.77;1.13;;;;;;;-145.69;100.00;52567.16;5075414;28;20286;-77
2023/01/14 10:55:57;;;;;;;3.17;1.10;;;;;;;-145.69;100.00;52551.31;5074993;28;20773;-76
2023/01/14 10:58:31;;;;;;;3.07;1.00;;;;;;;-145.69;100.00;52545.38;5075438;28;20194;-77
2023/01/14 11:01:04;;;;;;;6.67;1.20;;;;;;;-145.69;100.00;52563.22;5075154;28;20672;-80
2023/01/14 11:03:33;;;;;;;4.77;1.13;;;;;;;-145.69;100.00;52551.31;5075174;28;20195;-79
2023/01/14 11:06:02;;;;;;;3.53;0.90;;;;;;;-145.69;100.00;52577.06;5073164;28;20195;-76
2023/01/14 11:08:34;;;;;;;4.90;1.10;;;;;;;-145.69;100.00;52569.16;5074722;28;20206;-80
2023/01/14 11:11:07;;;;;;;4.77;1.23;;;;;;;-145.69;100.00;52527.56;5075115;28;20230;-77
2023/01/14 11:13:36;;;;;;;2.83;0.87;;;;;;;-145.69;100.00;52575.09;5074946;28;20206;-77
2023/01/14 11:16:03;;;;;;;2.90;0.87;;;;;;;-145.69;100.00;52547.38;5074967;28;20280;-79
2023/01/14 11:18:31;;;;;;;3.00;0.80;;;;;;;-145.69;100.00;52559.25;5074393;28;20573;-78
2023/01/14 11:21:06;;;;;;;5.13;1.10;;;;;;;-145.69;100.00;52594.91;5074547;28;20206;-80
2023/01/14 11:23:35;;;;;;;5.53;1.10;;;;;;;-145.69;100.00;52559.25;5074849;28;20284;-80
2023/01/14 11:26:07;;;;;;;3.27;1.40;;;;;;;-145.69;100.00;52585.00;5071317;28;20199;-79
2023/01/14 11:28:37;;;;;;;3.33;1.30;;;;;;;-145.69;100.00;52551.31;5074423;28;20222;-77
2023/01/14 11:31:04;;;;;;;4.83;1.17;;;;;;;-145.69;100.00;52555.28;5074594;28;20198;-77
2023/01/14 11:33:33;;;;;;;3.70;0.90;;;;;;;-145.69;100.00;52588.97;5074574;28;20198;-78
2023/01/14 11:36:00;;;;;;;1.93;0.97;;;;;;;-145.69;100.00;52527.56;5074188;28;20292;-79
2023/01/14 11:38:27;;;;;;;5.63;1.30;;;;;;;-145.69;100.00;52575.09;5073090;28;20191;-79
2023/01/14 11:43:55;;;;;;;10.03;1.30;;;;;;;-145.69;100.00;52547.38;5073837;28;20225;-77
2023/01/14 11:46:22;;;;;;;4.07;1.30;;;;;;;-145.69;100.00;52551.31;5074113;28;20197;-76